sensor_id;sensor_type;location;lat;lon;timestamp;P1;durP1;ratioP1;P2;durP2;ratioP2
66189;SDS011;52992;52.084;5.412;2023-09-07T00:01:00;5.87;;;5.27;;
66189;SDS011;52992;52.084;5.412;2023-09-07T00:03:29;9.47;;;5.20;;
66189;SDS011;52992;52.084;5.412;2023-09-07T00:05:56;6.30;;;5.70;;
66189;SDS011;52992;52.084;5.412;2023-09-07T00:08:23;6.33;;;5.37;;
66189;SDS011;52992;52.084;5.412;2023-09-07T00:10:51;7.17;;;5.77;;
66189;SDS011;52992;52.084;5.412;2023-09-07T00:13:18;6.27;;;5.40;;
66189;SDS011;52992;52.084;5.412;2023-09-07T00:15:45;11.20;;;5.70;;
66189;SDS011;52992;52.084;5.412;2023-09-07T00:18:12;6.43;;;5.53;;
66189;SDS011;52992;52.084;5.412;2023-09-07T00:20:39;6.97;;;5.20;;
66189;SDS011;52992;52.084;5.412;2023-09-07T00:23:06;8.17;;;5.33;;
66189;SDS011;52992;52.084;5.412;2023-09-07T00:25:33;6.50;;;5.00;;
66189;SDS011;52992;52.084;5.412;2023-09-07T00:28:00;8.10;;;5.47;;
66189;SDS011;52992;52.084;5.412;2023-09-07T00:30:28;6.43;;;5.00;;
66189;SDS011;52992;52.084;5.412;2023-09-07T00:32:54;8.17;;;5.53;;
66189;SDS011;52992;52.084;5.412;2023-09-07T00:35:21;5.90;;;5.30;;
66189;SDS011;52992;52.084;5.412;2023-09-07T00:37:48;5.87;;;5.20;;
66189;SDS011;52992;52.084;5.412;2023-09-07T00:40:15;8.73;;;5.80;;
66189;SDS011;52992;52.084;5.412;2023-09-07T00:42:42;6.43;;;5.67;;
66189;SDS011;52992;52.084;5.412;2023-09-07T00:45:09;7.00;;;5.50;;
66189;SDS011;52992;52.084;5.412;2023-09-07T00:47:36;7.63;;;5.60;;
66189;SDS011;52992;52.084;5.412;2023-09-07T00:50:07;5.77;;;5.17;;
66189;SDS011;52992;52.084;5.412;2023-09-07T00:52:35;6.37;;;5.40;;
66189;SDS011;52992;52.084;5.412;2023-09-07T00:55:06;6.20;;;5.53;;
66189;SDS011;52992;52.084;5.412;2023-09-07T00:57:35;7.53;;;4.90;;
66189;SDS011;52992;52.084;5.412;2023-09-07T01:00:04;6.00;;;4.90;;
66189;SDS011;52992;52.084;5.412;2023-09-07T01:02:33;7.20;;;5.00;;
66189;SDS011;52992;52.084;5.412;2023-09-07T01:05:04;5.43;;;4.93;;
66189;SDS011;52992;52.084;5.412;2023-09-07T01:10:09;6.97;;;5.23;;
66189;SDS011;52992;52.084;5.412;2023-09-07T01:12:37;6.77;;;4.93;;
66189;SDS011;52992;52.084;5.412;2023-09-07T01:15:04;5.43;;;4.57;;
66189;SDS011;52992;52.084;5.412;2023-09-07T01:17:32;6.53;;;4.70;;
66189;SDS011;52992;52.084;5.412;2023-09-07T01:20:03;6.23;;;4.90;;
66189;SDS011;52992;52.084;5.412;2023-09-07T01:22:36;4.50;;;4.10;;
66189;SDS011;52992;52.084;5.412;2023-09-07T01:25:05;4.90;;;4.40;;
66189;SDS011;52992;52.084;5.412;2023-09-07T01:27:33;5.00;;;4.17;;
66189;SDS011;52992;52.084;5.412;2023-09-07T01:30:01;5.53;;;4.87;;
66189;SDS011;52992;52.084;5.412;2023-09-07T01:32:30;4.63;;;4.17;;
66189;SDS011;52992;52.084;5.412;2023-09-07T01:34:57;4.57;;;4.17;;
66189;SDS011;52992;52.084;5.412;2023-09-07T01:37:25;5.23;;;4.40;;
66189;SDS011;52992;52.084;5.412;2023-09-07T01:39:52;5.13;;;4.47;;
66189;SDS011;52992;52.084;5.412;2023-09-07T01:42:19;5.20;;;4.40;;
66189;SDS011;52992;52.084;5.412;2023-09-07T01:44:48;5.10;;;4.60;;
66189;SDS011;52992;52.084;5.412;2023-09-07T01:47:15;7.50;;;4.90;;
66189;SDS011;52992;52.084;5.412;2023-09-07T01:49:42;6.43;;;4.77;;
66189;SDS011;52992;52.084;5.412;2023-09-07T01:52:09;6.10;;;5.47;;
66189;SDS011;52992;52.084;5.412;2023-09-07T01:54:36;8.27;;;5.20;;
66189;SDS011;52992;52.084;5.412;2023-09-07T01:57:03;5.63;;;5.13;;
66189;SDS011;52992;52.084;5.412;2023-09-07T01:59:30;6.97;;;5.50;;
66189;SDS011;52992;52.084;5.412;2023-09-07T02:01:57;6.70;;;5.30;;
66189;SDS011;52992;52.084;5.412;2023-09-07T02:04:24;6.23;;;5.30;;
66189;SDS011;52992;52.084;5.412;2023-09-07T02:06:51;6.43;;;5.20;;
66189;SDS011;52992;52.084;5.412;2023-09-07T02:09:18;6.37;;;4.83;;
66189;SDS011;52992;52.084;5.412;2023-09-07T02:11:45;6.70;;;5.30;;
66189;SDS011;52992;52.084;5.412;2023-09-07T02:14:12;6.10;;;5.10;;
66189;SDS011;52992;52.084;5.412;2023-09-07T02:16:39;6.50;;;5.27;;
66189;SDS011;52992;52.084;5.412;2023-09-07T02:19:06;5.80;;;5.23;;
66189;SDS011;52992;52.084;5.412;2023-09-07T02:21:33;6.60;;;5.50;;
66189;SDS011;52992;52.084;5.412;2023-09-07T02:24:00;6.43;;;5.20;;
66189;SDS011;52992;52.084;5.412;2023-09-07T02:26:28;6.03;;;5.43;;
66189;SDS011;52992;52.084;5.412;2023-09-07T02:28:54;6.43;;;5.37;;
66189;SDS011;52992;52.084;5.412;2023-09-07T02:31:22;6.20;;;5.20;;
66189;SDS011;52992;52.084;5.412;2023-09-07T02:33:50;6.83;;;5.10;;
66189;SDS011;52992;52.084;5.412;2023-09-07T02:36:17;5.93;;;5.33;;
66189;SDS011;52992;52.084;5.412;2023-09-07T02:38:44;5.87;;;4.80;;
66189;SDS011;52992;52.084;5.412;2023-09-07T02:41:11;6.30;;;5.33;;
66189;SDS011;52992;52.084;5.412;2023-09-07T02:43:38;6.47;;;4.80;;
66189;SDS011;52992;52.084;5.412;2023-09-07T02:46:05;6.27;;;4.57;;
66189;SDS011;52992;52.084;5.412;2023-09-07T02:48:32;8.00;;;5.47;;
66189;SDS011;52992;52.084;5.412;2023-09-07T02:51:01;6.40;;;5.07;;
66189;SDS011;52992;52.084;5.412;2023-09-07T02:53:28;6.80;;;5.10;;
66189;SDS011;52992;52.084;5.412;2023-09-07T02:55:56;5.10;;;4.40;;
66189;SDS011;52992;52.084;5.412;2023-09-07T02:58:24;5.37;;;4.63;;
66189;SDS011;52992;52.084;5.412;2023-09-07T03:00:52;6.63;;;5.07;;
66189;SDS011;52992;52.084;5.412;2023-09-07T03:03:21;6.20;;;4.80;;
66189;SDS011;52992;52.084;5.412;2023-09-07T03:05:49;7.20;;;5.20;;
66189;SDS011;52992;52.084;5.412;2023-09-07T03:08:16;5.63;;;4.90;;
66189;SDS011;52992;52.084;5.412;2023-09-07T03:10:44;5.43;;;4.53;;
66189;SDS011;52992;52.084;5.412;2023-09-07T03:13:11;5.60;;;4.70;;
66189;SDS011;52992;52.084;5.412;2023-09-07T03:15:38;7.00;;;5.30;;
66189;SDS011;52992;52.084;5.412;2023-09-07T03:18:10;6.90;;;6.17;;
66189;SDS011;52992;52.084;5.412;2023-09-07T03:20:38;7.10;;;5.70;;
66189;SDS011;52992;52.084;5.412;2023-09-07T03:23:05;6.27;;;5.53;;
66189;SDS011;52992;52.084;5.412;2023-09-07T03:25:34;6.53;;;5.20;;
66189;SDS011;52992;52.084;5.412;2023-09-07T03:28:01;7.13;;;5.33;;
66189;SDS011;52992;52.084;5.412;2023-09-07T03:30:31;5.87;;;5.27;;
66189;SDS011;52992;52.084;5.412;2023-09-07T03:32:58;6.77;;;4.97;;
66189;SDS011;52992;52.084;5.412;2023-09-07T03:35:25;7.60;;;5.30;;
66189;SDS011;52992;52.084;5.412;2023-09-07T03:37:53;8.73;;;5.07;;
66189;SDS011;52992;52.084;5.412;2023-09-07T03:40:21;6.33;;;4.57;;
66189;SDS011;52992;52.084;5.412;2023-09-07T03:42:48;5.47;;;4.87;;
66189;SDS011;52992;52.084;5.412;2023-09-07T03:45:16;6.47;;;5.20;;
66189;SDS011;52992;52.084;5.412;2023-09-07T03:47:43;6.53;;;5.43;;
66189;SDS011;52992;52.084;5.412;2023-09-07T03:50:13;8.00;;;6.00;;
66189;SDS011;52992;52.084;5.412;2023-09-07T03:52:40;7.60;;;6.13;;
66189;SDS011;52992;52.084;5.412;2023-09-07T03:55:07;7.20;;;6.37;;
66189;SDS011;52992;52.084;5.412;2023-09-07T03:57:36;7.27;;;5.80;;
66189;SDS011;52992;52.084;5.412;2023-09-07T04:00:03;7.13;;;5.93;;
66189;SDS011;52992;52.084;5.412;2023-09-07T04:02:45;7.60;;;6.37;;
66189;SDS011;52992;52.084;5.412;2023-09-07T04:05:13;7.13;;;5.87;;
66189;SDS011;52992;52.084;5.412;2023-09-07T04:07:40;6.57;;;5.43;;
66189;SDS011;52992;52.084;5.412;2023-09-07T04:10:08;6.93;;;5.43;;
66189;SDS011;52992;52.084;5.412;2023-09-07T04:12:36;7.00;;;5.40;;
66189;SDS011;52992;52.084;5.412;2023-09-07T04:15:03;7.97;;;5.87;;
66189;SDS011;52992;52.084;5.412;2023-09-07T04:17:30;5.97;;;5.30;;
66189;SDS011;52992;52.084;5.412;2023-09-07T04:20:07;6.53;;;5.83;;
66189;SDS011;52992;52.084;5.412;2023-09-07T04:22:35;7.30;;;5.77;;
66189;SDS011;52992;52.084;5.412;2023-09-07T04:25:02;6.97;;;5.53;;
66189;SDS011;52992;52.084;5.412;2023-09-07T04:27:30;6.13;;;5.53;;
66189;SDS011;52992;52.084;5.412;2023-09-07T04:29:58;7.13;;;5.90;;
66189;SDS011;52992;52.084;5.412;2023-09-07T04:32:25;6.70;;;5.73;;
66189;SDS011;52992;52.084;5.412;2023-09-07T04:34:53;9.03;;;6.10;;
66189;SDS011;52992;52.084;5.412;2023-09-07T04:37:25;7.53;;;6.00;;
66189;SDS011;52992;52.084;5.412;2023-09-07T04:39:52;7.70;;;5.40;;
66189;SDS011;52992;52.084;5.412;2023-09-07T04:42:21;7.87;;;5.87;;
66189;SDS011;52992;52.084;5.412;2023-09-07T04:44:48;6.07;;;5.30;;
66189;SDS011;52992;52.084;5.412;2023-09-07T04:47:15;6.63;;;5.70;;
66189;SDS011;52992;52.084;5.412;2023-09-07T04:49:48;7.27;;;5.63;;
66189;SDS011;52992;52.084;5.412;2023-09-07T04:52:19;8.73;;;5.37;;
66189;SDS011;52992;52.084;5.412;2023-09-07T04:54:46;5.63;;;4.77;;
66189;SDS011;52992;52.084;5.412;2023-09-07T04:57:18;7.93;;;5.57;;
66189;SDS011;52992;52.084;5.412;2023-09-07T04:59:46;6.80;;;5.80;;
66189;SDS011;52992;52.084;5.412;2023-09-07T05:02:13;8.33;;;5.87;;
66189;SDS011;52992;52.084;5.412;2023-09-07T05:04:40;6.27;;;5.67;;
66189;SDS011;52992;52.084;5.412;2023-09-07T05:07:07;8.80;;;6.17;;
66189;SDS011;52992;52.084;5.412;2023-09-07T05:09:34;7.97;;;5.90;;
66189;SDS011;52992;52.084;5.412;2023-09-07T05:12:01;10.70;;;6.10;;
66189;SDS011;52992;52.084;5.412;2023-09-07T05:14:28;8.50;;;5.97;;
66189;SDS011;52992;52.084;5.412;2023-09-07T05:16:56;7.90;;;6.10;;
66189;SDS011;52992;52.084;5.412;2023-09-07T05:19:23;7.23;;;5.93;;
66189;SDS011;52992;52.084;5.412;2023-09-07T05:21:50;8.30;;;6.37;;
66189;SDS011;52992;52.084;5.412;2023-09-07T05:24:17;7.90;;;5.80;;
66189;SDS011;52992;52.084;5.412;2023-09-07T05:26:44;6.10;;;5.50;;
66189;SDS011;52992;52.084;5.412;2023-09-07T05:29:11;7.33;;;5.70;;
66189;SDS011;52992;52.084;5.412;2023-09-07T05:31:40;6.30;;;5.20;;
66189;SDS011;52992;52.084;5.412;2023-09-07T05:34:07;6.93;;;5.37;;
66189;SDS011;52992;52.084;5.412;2023-09-07T05:36:33;6.23;;;5.57;;
66189;SDS011;52992;52.084;5.412;2023-09-07T05:39:01;6.37;;;5.50;;
66189;SDS011;52992;52.084;5.412;2023-09-07T05:41:29;7.20;;;5.33;;
66189;SDS011;52992;52.084;5.412;2023-09-07T05:43:56;6.53;;;5.73;;
66189;SDS011;52992;52.084;5.412;2023-09-07T05:46:23;8.07;;;5.60;;
66189;SDS011;52992;52.084;5.412;2023-09-07T05:48:51;9.23;;;6.13;;
66189;SDS011;52992;52.084;5.412;2023-09-07T05:51:18;8.97;;;6.30;;
66189;SDS011;52992;52.084;5.412;2023-09-07T05:53:45;8.87;;;6.43;;
66189;SDS011;52992;52.084;5.412;2023-09-07T05:56:12;8.03;;;6.23;;
66189;SDS011;52992;52.084;5.412;2023-09-07T05:58:40;7.97;;;5.97;;
66189;SDS011;52992;52.084;5.412;2023-09-07T06:01:07;10.73;;;6.20;;
66189;SDS011;52992;52.084;5.412;2023-09-07T06:03:34;6.37;;;5.60;;
66189;SDS011;52992;52.084;5.412;2023-09-07T06:06:02;6.87;;;6.17;;
66189;SDS011;52992;52.084;5.412;2023-09-07T06:08:29;7.40;;;6.00;;
66189;SDS011;52992;52.084;5.412;2023-09-07T06:10:57;7.63;;;6.07;;
66189;SDS011;52992;52.084;5.412;2023-09-07T06:13:23;7.70;;;5.80;;
66189;SDS011;52992;52.084;5.412;2023-09-07T06:15:51;6.90;;;5.60;;
66189;SDS011;52992;52.084;5.412;2023-09-07T06:18:18;7.13;;;5.73;;
66189;SDS011;52992;52.084;5.412;2023-09-07T06:20:46;7.23;;;5.93;;
66189;SDS011;52992;52.084;5.412;2023-09-07T06:23:13;8.10;;;6.20;;
66189;SDS011;52992;52.084;5.412;2023-09-07T06:25:40;9.13;;;6.30;;
66189;SDS011;52992;52.084;5.412;2023-09-07T06:28:07;7.10;;;6.00;;
66189;SDS011;52992;52.084;5.412;2023-09-07T06:30:34;11.80;;;6.40;;
66189;SDS011;52992;52.084;5.412;2023-09-07T06:33:01;7.10;;;6.07;;
66189;SDS011;52992;52.084;5.412;2023-09-07T06:35:28;7.43;;;6.37;;
66189;SDS011;52992;52.084;5.412;2023-09-07T06:37:55;8.13;;;6.60;;
66189;SDS011;52992;52.084;5.412;2023-09-07T06:40:24;7.13;;;6.40;;
66189;SDS011;52992;52.084;5.412;2023-09-07T06:42:54;8.70;;;6.87;;
66189;SDS011;52992;52.084;5.412;2023-09-07T06:45:24;6.97;;;6.17;;
66189;SDS011;52992;52.084;5.412;2023-09-07T06:47:51;9.70;;;6.93;;
66189;SDS011;52992;52.084;5.412;2023-09-07T06:50:22;9.43;;;7.10;;
66189;SDS011;52992;52.084;5.412;2023-09-07T06:52:49;9.17;;;7.50;;
66189;SDS011;52992;52.084;5.412;2023-09-07T06:55:17;11.93;;;7.83;;
66189;SDS011;52992;52.084;5.412;2023-09-07T06:57:45;10.70;;;8.77;;
66189;SDS011;52992;52.084;5.412;2023-09-07T07:00:12;11.63;;;7.83;;
66189;SDS011;52992;52.084;5.412;2023-09-07T07:02:40;16.43;;;8.93;;
66189;SDS011;52992;52.084;5.412;2023-09-07T07:05:08;14.87;;;10.57;;
66189;SDS011;52992;52.084;5.412;2023-09-07T07:07:35;9.70;;;8.07;;
66189;SDS011;52992;52.084;5.412;2023-09-07T07:10:03;10.97;;;7.47;;
66189;SDS011;52992;52.084;5.412;2023-09-07T07:12:31;14.17;;;9.80;;
66189;SDS011;52992;52.084;5.412;2023-09-07T07:15:02;11.20;;;8.23;;
66189;SDS011;52992;52.084;5.412;2023-09-07T07:17:29;14.07;;;9.90;;
66189;SDS011;52992;52.084;5.412;2023-09-07T07:19:56;10.13;;;8.40;;
66189;SDS011;52992;52.084;5.412;2023-09-07T07:22:23;12.13;;;9.23;;
66189;SDS011;52992;52.084;5.412;2023-09-07T07:24:51;10.50;;;9.40;;
66189;SDS011;52992;52.084;5.412;2023-09-07T07:27:20;12.20;;;9.30;;
66189;SDS011;52992;52.084;5.412;2023-09-07T07:29:47;10.97;;;8.67;;
66189;SDS011;52992;52.084;5.412;2023-09-07T07:32:14;14.77;;;9.43;;
66189;SDS011;52992;52.084;5.412;2023-09-07T07:34:41;11.53;;;9.20;;
66189;SDS011;52992;52.084;5.412;2023-09-07T07:37:09;11.50;;;9.20;;
66189;SDS011;52992;52.084;5.412;2023-09-07T07:39:36;13.03;;;9.90;;
66189;SDS011;52992;52.084;5.412;2023-09-07T07:42:04;12.03;;;8.97;;
66189;SDS011;52992;52.084;5.412;2023-09-07T07:44:32;15.37;;;9.37;;
66189;SDS011;52992;52.084;5.412;2023-09-07T07:47:00;12.10;;;9.10;;
66189;SDS011;52992;52.084;5.412;2023-09-07T07:49:27;10.90;;;8.60;;
66189;SDS011;52992;52.084;5.412;2023-09-07T07:51:54;12.43;;;9.43;;
66189;SDS011;52992;52.084;5.412;2023-09-07T07:54:24;10.73;;;9.10;;
66189;SDS011;52992;52.084;5.412;2023-09-07T07:56:53;10.77;;;8.20;;
66189;SDS011;52992;52.084;5.412;2023-09-07T07:59:20;14.10;;;8.87;;
66189;SDS011;52992;52.084;5.412;2023-09-07T08:01:47;13.30;;;8.10;;
66189;SDS011;52992;52.084;5.412;2023-09-07T08:04:14;10.23;;;8.53;;
66189;SDS011;52992;52.084;5.412;2023-09-07T08:06:42;12.03;;;9.80;;
66189;SDS011;52992;52.084;5.412;2023-09-07T08:09:09;10.07;;;7.97;;
66189;SDS011;52992;52.084;5.412;2023-09-07T08:11:36;13.40;;;8.43;;
66189;SDS011;52992;52.084;5.412;2023-09-07T08:14:06;10.77;;;8.10;;
66189;SDS011;52992;52.084;5.412;2023-09-07T08:16:33;11.13;;;8.67;;
66189;SDS011;52992;52.084;5.412;2023-09-07T08:19:00;13.57;;;8.33;;
66189;SDS011;52992;52.084;5.412;2023-09-07T08:21:27;10.53;;;7.93;;
66189;SDS011;52992;52.084;5.412;2023-09-07T08:23:54;9.80;;;8.27;;
66189;SDS011;52992;52.084;5.412;2023-09-07T08:26:22;13.63;;;8.37;;
66189;SDS011;52992;52.084;5.412;2023-09-07T08:28:49;10.60;;;7.53;;
66189;SDS011;52992;52.084;5.412;2023-09-07T08:31:16;8.57;;;7.43;;
66189;SDS011;52992;52.084;5.412;2023-09-07T08:33:48;8.53;;;7.40;;
66189;SDS011;52992;52.084;5.412;2023-09-07T08:36:17;8.27;;;6.63;;
66189;SDS011;52992;52.084;5.412;2023-09-07T08:38:45;6.77;;;6.07;;
66189;SDS011;52992;52.084;5.412;2023-09-07T08:41:12;6.97;;;5.63;;
66189;SDS011;52992;52.084;5.412;2023-09-07T08:43:44;8.23;;;5.87;;
66189;SDS011;52992;52.084;5.412;2023-09-07T08:46:17;8.03;;;5.03;;
66189;SDS011;52992;52.084;5.412;2023-09-07T08:48:50;8.13;;;5.90;;
66189;SDS011;52992;52.084;5.412;2023-09-07T08:51:18;7.30;;;5.30;;
66189;SDS011;52992;52.084;5.412;2023-09-07T08:53:46;12.03;;;5.60;;
66189;SDS011;52992;52.084;5.412;2023-09-07T08:56:13;6.57;;;5.07;;
66189;SDS011;52992;52.084;5.412;2023-09-07T08:58:41;12.53;;;6.10;;
66189;SDS011;52992;52.084;5.412;2023-09-07T09:01:11;5.20;;;4.70;;
66189;SDS011;52992;52.084;5.412;2023-09-07T09:03:39;6.90;;;5.30;;
66189;SDS011;52992;52.084;5.412;2023-09-07T09:06:08;5.20;;;4.40;;
66189;SDS011;52992;52.084;5.412;2023-09-07T09:11:32;5.87;;;3.93;;
66189;SDS011;52992;52.084;5.412;2023-09-07T09:13:59;4.30;;;3.70;;
66189;SDS011;52992;52.084;5.412;2023-09-07T09:16:26;8.87;;;3.80;;
66189;SDS011;52992;52.084;5.412;2023-09-07T09:18:54;6.03;;;3.80;;
66189;SDS011;52992;52.084;5.412;2023-09-07T09:21:23;7.23;;;4.27;;
66189;SDS011;52992;52.084;5.412;2023-09-07T09:23:54;8.60;;;4.30;;
66189;SDS011;52992;52.084;5.412;2023-09-07T09:26:22;8.30;;;4.18;;
66189;SDS011;52992;52.084;5.412;2023-09-07T09:28:55;4.72;;;3.72;;
66189;SDS011;52992;52.084;5.412;2023-09-07T09:31:23;5.30;;;3.60;;
66189;SDS011;52992;52.084;5.412;2023-09-07T09:33:51;8.00;;;3.85;;
66189;SDS011;52992;52.084;5.412;2023-09-07T09:36:18;3.63;;;3.33;;
66189;SDS011;52992;52.084;5.412;2023-09-07T09:38:47;4.15;;;3.45;;
66189;SDS011;52992;52.084;5.412;2023-09-07T09:41:16;5.70;;;3.67;;
66189;SDS011;52992;52.084;5.412;2023-09-07T09:43:45;5.75;;;3.67;;
66189;SDS011;52992;52.084;5.412;2023-09-07T09:46:15;4.75;;;3.65;;
66189;SDS011;52992;52.084;5.412;2023-09-07T09:48:43;4.22;;;3.53;;
66189;SDS011;52992;52.084;5.412;2023-09-07T09:51:11;4.70;;;3.58;;
66189;SDS011;52992;52.084;5.412;2023-09-07T09:53:41;5.70;;;3.75;;
66189;SDS011;52992;52.084;5.412;2023-09-07T09:56:09;4.55;;;3.90;;
66189;SDS011;52992;52.084;5.412;2023-09-07T09:58:36;4.82;;;3.90;;
66189;SDS011;52992;52.084;5.412;2023-09-07T10:01:04;5.18;;;3.90;;
66189;SDS011;52992;52.084;5.412;2023-09-07T10:03:34;5.32;;;3.92;;
66189;SDS011;52992;52.084;5.412;2023-09-07T10:06:19;8.50;;;3.80;;
66189;SDS011;52992;52.084;5.412;2023-09-07T10:08:58;6.28;;;4.13;;
66189;SDS011;52992;52.084;5.412;2023-09-07T10:11:29;12.52;;;4.82;;
66189;SDS011;52992;52.084;5.412;2023-09-07T10:13:58;5.47;;;3.60;;
66189;SDS011;52992;52.084;5.412;2023-09-07T10:16:26;5.30;;;3.75;;
66189;SDS011;52992;52.084;5.412;2023-09-07T10:18:54;5.50;;;3.92;;
66189;SDS011;52992;52.084;5.412;2023-09-07T10:21:24;6.00;;;3.70;;
66189;SDS011;52992;52.084;5.412;2023-09-07T10:23:52;7.20;;;4.10;;
66189;SDS011;52992;52.084;5.412;2023-09-07T10:26:20;4.65;;;3.83;;
66189;SDS011;52992;52.084;5.412;2023-09-07T10:28:47;4.97;;;3.47;;
66189;SDS011;52992;52.084;5.412;2023-09-07T10:31:26;5.82;;;4.00;;
66189;SDS011;52992;52.084;5.412;2023-09-07T10:34:09;5.00;;;3.92;;
66189;SDS011;52992;52.084;5.412;2023-09-07T10:36:38;6.05;;;3.70;;
66189;SDS011;52992;52.084;5.412;2023-09-07T10:39:06;4.60;;;3.80;;
66189;SDS011;52992;52.084;5.412;2023-09-07T10:41:39;3.90;;;3.42;;
66189;SDS011;52992;52.084;5.412;2023-09-07T10:44:10;4.45;;;3.75;;
66189;SDS011;52992;52.084;5.412;2023-09-07T10:46:38;3.58;;;3.28;;
66189;SDS011;52992;52.084;5.412;2023-09-07T10:49:11;4.43;;;3.60;;
66189;SDS011;52992;52.084;5.412;2023-09-07T10:51:42;4.22;;;3.20;;
66189;SDS011;52992;52.084;5.412;2023-09-07T10:54:18;9.25;;;3.78;;
66189;SDS011;52992;52.084;5.412;2023-09-07T10:56:49;3.67;;;3.38;;
66189;SDS011;52992;52.084;5.412;2023-09-07T10:59:17;5.13;;;3.67;;
66189;SDS011;52992;52.084;5.412;2023-09-07T11:01:44;3.78;;;3.47;;
66189;SDS011;52992;52.084;5.412;2023-09-07T11:04:12;4.68;;;3.40;;
66189;SDS011;52992;52.084;5.412;2023-09-07T11:06:40;3.83;;;3.53;;
66189;SDS011;52992;52.084;5.412;2023-09-07T11:09:08;3.45;;;3.13;;
66189;SDS011;52992;52.084;5.412;2023-09-07T11:11:37;5.35;;;3.63;;
66189;SDS011;52992;52.084;5.412;2023-09-07T11:14:05;6.38;;;3.47;;
66189;SDS011;52992;52.084;5.412;2023-09-07T11:16:32;5.88;;;3.45;;
66189;SDS011;52992;52.084;5.412;2023-09-07T11:19:04;3.83;;;3.50;;
66189;SDS011;52992;52.084;5.412;2023-09-07T11:21:31;4.35;;;3.65;;
66189;SDS011;52992;52.084;5.412;2023-09-07T11:24:00;8.38;;;3.63;;
66189;SDS011;52992;52.084;5.412;2023-09-07T11:26:41;4.20;;;3.80;;
66189;SDS011;52992;52.084;5.412;2023-09-07T11:29:09;4.00;;;3.58;;
66189;SDS011;52992;52.084;5.412;2023-09-07T11:31:39;5.85;;;3.63;;
66189;SDS011;52992;52.084;5.412;2023-09-07T11:34:10;4.22;;;3.83;;
66189;SDS011;52992;52.084;5.412;2023-09-07T11:36:39;4.18;;;3.35;;
66189;SDS011;52992;52.084;5.412;2023-09-07T11:39:07;3.65;;;3.35;;
66189;SDS011;52992;52.084;5.412;2023-09-07T11:41:40;4.32;;;3.45;;
66189;SDS011;52992;52.084;5.412;2023-09-07T11:44:09;3.80;;;3.40;;
66189;SDS011;52992;52.084;5.412;2023-09-07T11:46:36;3.83;;;3.47;;
66189;SDS011;52992;52.084;5.412;2023-09-07T11:49:04;3.88;;;3.47;;
66189;SDS011;52992;52.084;5.412;2023-09-07T11:51:32;4.05;;;3.50;;
66189;SDS011;52992;52.084;5.412;2023-09-07T11:54:01;4.18;;;3.60;;
66189;SDS011;52992;52.084;5.412;2023-09-07T11:56:28;3.88;;;3.40;;
66189;SDS011;52992;52.084;5.412;2023-09-07T11:58:55;4.78;;;3.80;;
66189;SDS011;52992;52.084;5.412;2023-09-07T12:01:22;4.47;;;3.88;;
66189;SDS011;52992;52.084;5.412;2023-09-07T12:03:49;3.63;;;3.17;;
66189;SDS011;52992;52.084;5.412;2023-09-07T12:06:16;3.72;;;3.42;;
66189;SDS011;52992;52.084;5.412;2023-09-07T12:08:57;3.40;;;3.10;;
66189;SDS011;52992;52.084;5.412;2023-09-07T12:11:28;3.67;;;3.38;;
66189;SDS011;52992;52.084;5.412;2023-09-07T12:13:55;3.70;;;3.10;;
66189;SDS011;52992;52.084;5.412;2023-09-07T12:16:22;4.15;;;3.78;;
66189;SDS011;52992;52.084;5.412;2023-09-07T12:18:49;4.13;;;3.33;;
66189;SDS011;52992;52.084;5.412;2023-09-07T12:21:16;6.05;;;3.50;;
66189;SDS011;52992;52.084;5.412;2023-09-07T12:23:43;3.45;;;3.13;;
66189;SDS011;52992;52.084;5.412;2023-09-07T12:26:10;6.40;;;3.95;;
66189;SDS011;52992;52.084;5.412;2023-09-07T12:28:38;6.22;;;3.42;;
66189;SDS011;52992;52.084;5.412;2023-09-07T12:31:05;4.72;;;3.83;;
66189;SDS011;52992;52.084;5.412;2023-09-07T12:33:32;5.68;;;3.63;;
66189;SDS011;52992;52.084;5.412;2023-09-07T12:35:59;3.40;;;3.10;;
66189;SDS011;52992;52.084;5.412;2023-09-07T12:38:27;3.67;;;3.17;;
66189;SDS011;52992;52.084;5.412;2023-09-07T12:40:56;3.72;;;3.33;;
66189;SDS011;52992;52.084;5.412;2023-09-07T12:43:23;3.80;;;3.42;;
66189;SDS011;52992;52.084;5.412;2023-09-07T12:45:51;3.75;;;3.45;;
66189;SDS011;52992;52.084;5.412;2023-09-07T12:48:19;3.75;;;3.30;;
66189;SDS011;52992;52.084;5.412;2023-09-07T12:50:46;4.32;;;3.47;;
66189;SDS011;52992;52.084;5.412;2023-09-07T12:53:13;3.67;;;3.38;;
66189;SDS011;52992;52.084;5.412;2023-09-07T12:55:41;4.43;;;3.55;;
66189;SDS011;52992;52.084;5.412;2023-09-07T12:58:07;4.45;;;3.67;;
66189;SDS011;52992;52.084;5.412;2023-09-07T13:00:34;5.15;;;3.83;;
66189;SDS011;52992;52.084;5.412;2023-09-07T13:03:01;4.00;;;3.53;;
66189;SDS011;52992;52.084;5.412;2023-09-07T13:05:29;5.30;;;3.30;;
66189;SDS011;52992;52.084;5.412;2023-09-07T13:07:56;4.10;;;3.70;;
66189;SDS011;52992;52.084;5.412;2023-09-07T13:10:25;4.13;;;3.80;;
66189;SDS011;52992;52.084;5.412;2023-09-07T13:12:52;5.75;;;3.50;;
66189;SDS011;52992;52.084;5.412;2023-09-07T13:15:19;5.97;;;3.45;;
66189;SDS011;52992;52.084;5.412;2023-09-07T13:17:46;4.35;;;3.83;;
66189;SDS011;52992;52.084;5.412;2023-09-07T13:20:13;4.93;;;3.85;;
66189;SDS011;52992;52.084;5.412;2023-09-07T13:22:40;5.70;;;3.97;;
66189;SDS011;52992;52.084;5.412;2023-09-07T13:25:09;4.78;;;3.60;;
66189;SDS011;52992;52.084;5.412;2023-09-07T13:27:36;5.18;;;3.75;;
66189;SDS011;52992;52.084;5.412;2023-09-07T13:30:03;5.30;;;3.72;;
66189;SDS011;52992;52.084;5.412;2023-09-07T13:32:32;4.25;;;3.70;;
66189;SDS011;52992;52.084;5.412;2023-09-07T13:34:59;3.65;;;3.35;;
66189;SDS011;52992;52.084;5.412;2023-09-07T13:37:26;4.32;;;3.92;;
66189;SDS011;52992;52.084;5.412;2023-09-07T13:39:53;6.40;;;3.90;;
66189;SDS011;52992;52.084;5.412;2023-09-07T13:42:21;4.18;;;3.65;;
66189;SDS011;52992;52.084;5.412;2023-09-07T13:44:48;4.20;;;3.80;;
66189;SDS011;52992;52.084;5.412;2023-09-07T13:47:16;3.88;;;3.58;;
66189;SDS011;52992;52.084;5.412;2023-09-07T13:49:43;5.05;;;3.70;;
66189;SDS011;52992;52.084;5.412;2023-09-07T13:52:10;5.03;;;3.83;;
66189;SDS011;52992;52.084;5.412;2023-09-07T13:54:37;4.30;;;3.90;;
66189;SDS011;52992;52.084;5.412;2023-09-07T13:57:04;5.00;;;3.85;;
66189;SDS011;52992;52.084;5.412;2023-09-07T13:59:33;5.15;;;3.83;;
66189;SDS011;52992;52.084;5.412;2023-09-07T14:02:01;4.57;;;3.60;;
66189;SDS011;52992;52.084;5.412;2023-09-07T14:04:28;4.10;;;3.60;;
66189;SDS011;52992;52.084;5.412;2023-09-07T14:06:55;3.60;;;3.28;;
66189;SDS011;52992;52.084;5.412;2023-09-07T14:09:22;3.70;;;3.40;;
66189;SDS011;52992;52.084;5.412;2023-09-07T14:11:49;3.97;;;3.55;;
66189;SDS011;52992;52.084;5.412;2023-09-07T14:14:17;5.20;;;3.50;;
66189;SDS011;52992;52.084;5.412;2023-09-07T14:16:44;6.90;;;3.53;;
66189;SDS011;52992;52.084;5.412;2023-09-07T14:19:11;4.30;;;3.90;;
66189;SDS011;52992;52.084;5.412;2023-09-07T14:21:38;4.32;;;3.65;;
66189;SDS011;52992;52.084;5.412;2023-09-07T14:24:05;3.97;;;3.53;;
66189;SDS011;52992;52.084;5.412;2023-09-07T14:26:32;8.90;;;4.38;;
66189;SDS011;52992;52.084;5.412;2023-09-07T14:28:59;5.07;;;3.40;;
66189;SDS011;52992;52.084;5.412;2023-09-07T14:31:26;5.57;;;3.70;;
66189;SDS011;52992;52.084;5.412;2023-09-07T14:33:53;4.88;;;3.78;;
66189;SDS011;52992;52.084;5.412;2023-09-07T14:36:20;4.32;;;3.38;;
66189;SDS011;52992;52.084;5.412;2023-09-07T14:38:47;4.93;;;3.78;;
66189;SDS011;52992;52.084;5.412;2023-09-07T14:41:13;5.22;;;4.30;;
66189;SDS011;52992;52.084;5.412;2023-09-07T14:43:48;4.00;;;3.60;;
66189;SDS011;52992;52.084;5.412;2023-09-07T14:46:16;4.95;;;4.38;;
66189;SDS011;52992;52.084;5.412;2023-09-07T14:48:44;4.43;;;3.92;;
66189;SDS011;52992;52.084;5.412;2023-09-07T14:51:14;5.03;;;3.90;;
66189;SDS011;52992;52.084;5.412;2023-09-07T14:53:41;6.68;;;3.95;;
66189;SDS011;52992;52.084;5.412;2023-09-07T14:56:08;4.53;;;4.13;;